Time;durP1;ratioP1;P1;durP2;ratioP2;P2;SDS_P1;SDS_P2;PMS_P1;PMS_P2;Temp;Humidity;BMP_temperature;BMP_pressure;BME280_temperature;BME280_humidity;BME280_pressure;Samples;Min_cycle;Max_cycle;Signal;HPM_P1;HPM_P2
2022/09/02 00:01:21;;;;;;;2.08;1.05;;;14.70;99.90;;;;;;5049360;28;20474;-81
2022/09/02 00:03:46;;;;;;;1.60;1.10;;;14.70;99.90;;;;;;5043408;28;20021;-78
2022/09/02 00:06:13;;;;;;;3.35;1.25;;;14.70;99.90;;;;;;5055811;28;20090;-78
2022/09/02 00:08:39;;;;;;;2.17;0.95;;;14.60;99.90;;;;;;5048558;28;20381;-79
2022/09/02 00:11:06;;;;;;;2.03;1.42;;;14.60;99.90;;;;;;5056395;28;20057;-79
2022/09/02 00:13:34;;;;;;;1.80;0.90;;;14.60;99.90;;;;;;5050784;28;20465;-82
2022/09/02 00:16:00;;;;;;;3.80;1.08;;;14.60;99.90;;;;;;5051487;28;20094;-79
2022/09/02 00:18:26;;;;;;;2.67;1.25;;;14.60;99.90;;;;;;5053632;28;20024;-78
2022/09/02 00:20:51;;;;;;;2.15;1.25;;;14.60;99.90;;;;;;5050701;28;20013;-79
2022/09/02 00:23:17;;;;;;;1.02;0.80;;;14.60;99.90;;;;;;5050382;28;20056;-78
2022/09/02 00:25:43;;;;;;;2.42;1.17;;;14.50;99.90;;;;;;5048629;28;20135;-78
2022/09/02 00:28:11;;;;;;;1.88;1.48;;;14.60;99.90;;;;;;5051850;28;20071;-81
2022/09/02 00:30:38;;;;;;;2.67;1.35;;;14.50;99.90;;;;;;5045099;28;20021;-81
2022/09/02 00:33:04;;;;;;;2.03;1.40;;;14.50;99.90;;;;;;5052741;28;20025;-78
2022/09/02 00:35:29;;;;;;;2.03;1.20;;;14.50;99.90;;;;;;5053892;28;20074;-80
2022/09/02 00:37:55;;;;;;;5.00;1.38;;;14.50;99.90;;;;;;5048511;28;20040;-78
2022/09/02 00:40:22;;;;;;;1.20;1.10;;;14.50;99.90;;;;;;5057525;28;20116;-79
2022/09/02 00:42:48;;;;;;;2.53;1.25;;;14.50;99.90;;;;;;5046796;28;20010;-79
2022/09/02 00:45:14;;;;;;;3.75;1.20;;;14.50;99.90;;;;;;5057135;28;20144;-79
2022/09/02 00:47:39;;;;;;;2.60;1.50;;;14.40;99.90;;;;;;5048691;28;22122;-78
2022/09/02 00:50:09;;;;;;;1.70;1.05;;;14.40;99.90;;;;;;5050957;28;20028;-78
2022/09/02 00:52:52;;;;;;;1.67;1.00;;;14.40;99.90;;;;;;5048177;28;20032;-79
2022/09/02 00:55:31;;;;;;;2.75;1.73;;;14.30;99.90;;;;;;5043613;28;20037;-80
2022/09/02 00:58:02;;;;;;;1.92;1.30;;;14.30;99.90;;;;;;5044906;28;20037;-79
2022/09/02 01:00:33;;;;;;;5.68;1.95;;;14.30;99.90;;;;;;5044866;28;20017;-82
2022/09/02 01:03:02;;;;;;;2.63;1.27;;;14.30;99.90;;;;;;5044461;28;20040;-81
2022/09/02 01:05:32;;;;;;;2.33;1.33;;;14.20;99.90;;;;;;5042463;28;20354;-78
2022/09/02 01:07:58;;;;;;;1.70;1.33;;;14.20;99.90;;;;;;5056040;28;20025;-79
2022/09/02 01:10:28;;;;;;;4.80;1.50;;;14.20;99.90;;;;;;5050666;28;20139;-82
2022/09/02 01:12:59;;;;;;;2.67;1.45;;;14.10;99.90;;;;;;5063256;28;20021;-81
2022/09/02 01:15:25;;;;;;;2.78;1.75;;;14.10;99.90;;;;;;5052352;28;20107;-78
2022/09/02 01:17:52;;;;;;;1.60;1.17;;;14.00;99.90;;;;;;5046360;28;20062;-81
2022/09/02 01:20:23;;;;;;;2.95;1.55;;;14.00;99.90;;;;;;5056774;28;20025;-78
2022/09/02 01:22:49;;;;;;;2.47;1.58;;;14.00;99.90;;;;;;5052895;28;20025;-79
2022/09/02 01:25:19;;;;;;;2.60;1.52;;;14.00;99.90;;;;;;5040359;28;20033;-82
2022/09/02 01:27:47;;;;;;;1.98;1.27;;;13.90;99.90;;;;;;5045430;28;20079;-83
2022/09/02 01:30:16;;;;;;;2.20;1.30;;;13.90;99.90;;;;;;5044680;28;20026;-83
2022/09/02 01:32:42;;;;;;;2.67;1.33;;;13.90;99.90;;;;;;5054286;28;20029;-79
2022/09/02 01:35:07;;;;;;;3.00;1.50;;;13.90;99.90;;;;;;5047834;28;20113;-80
2022/09/02 01:37:33;;;;;;;2.25;1.35;;;13.90;99.90;;;;;;5054574;28;20070;-81
2022/09/02 01:39:59;;;;;;;1.85;1.60;;;13.90;99.90;;;;;;5053810;28;20103;-84
2022/09/02 01:42:25;;;;;;;2.28;1.48;;;13.80;99.90;;;;;;5058920;28;20029;-80
2022/09/02 01:44:50;;;;;;;2.28;1.40;;;13.80;99.90;;;;;;5058842;28;20032;-81
2022/09/02 01:47:20;;;;;;;3.05;1.42;;;13.80;99.90;;;;;;5059518;28;20111;-81
2022/09/02 01:49:46;;;;;;;2.67;1.58;;;13.80;99.90;;;;;;5064380;28;20547;-80
2022/09/02 01:52:13;;;;;;;4.03;1.70;;;13.70;99.90;;;;;;5045575;28;20029;-82
2022/09/02 01:54:39;;;;;;;2.33;1.67;;;13.70;99.90;;;;;;5039153;28;20034;-81
2022/09/02 01:57:04;;;;;;;1.90;1.05;;;13.70;99.90;;;;;;5054632;28;20354;-80
2022/09/02 01:59:30;;;;;;;2.47;1.67;;;13.70;99.90;;;;;;5049911;28;20034;-81
2022/09/02 02:01:55;;;;;;;4.60;1.65;;;13.70;99.90;;;;;;5053706;28;20051;-82
2022/09/02 02:04:23;;;;;;;3.58;2.10;;;13.70;99.90;;;;;;5044626;28;20037;-83
2022/09/02 02:06:49;;;;;;;2.47;1.50;;;13.60;99.90;;;;;;5045895;28;20036;-84
2022/09/02 02:09:16;;;;;;;2.92;1.90;;;13.60;99.90;;;;;;5051873;28;20031;-78
2022/09/02 02:11:42;;;;;;;1.88;1.48;;;13.60;99.90;;;;;;5049284;28;20017;-79
2022/09/02 02:14:08;;;;;;;3.03;1.20;;;13.60;99.90;;;;;;5046313;28;20036;-81
2022/09/02 02:16:33;;;;;;;2.95;1.40;;;13.50;99.90;;;;;;5056986;28;20036;-79
2022/09/02 02:18:59;;;;;;;1.58;1.33;;;13.50;99.90;;;;;;5049569;28;20614;-79
2022/09/02 02:21:24;;;;;;;2.10;1.58;;;13.50;99.90;;;;;;5050534;28;20052;-79
2022/09/02 02:23:50;;;;;;;2.38;1.38;;;13.50;99.90;;;;;;5052790;28;20403;-81
2022/09/02 02:26:16;;;;;;;2.33;1.52;;;13.40;99.90;;;;;;5049797;28;20029;-79
2022/09/02 02:28:41;;;;;;;6.63;1.60;;;13.50;99.90;;;;;;5052872;28;20080;-80
2022/09/02 02:31:08;;;;;;;1.83;1.40;;;13.40;99.90;;;;;;5052036;28;20017;-79
2022/09/02 02:33:34;;;;;;;2.50;1.90;;;13.40;99.90;;;;;;5046554;28;20527;-79
2022/09/02 02:36:00;;;;;;;5.45;1.60;;;13.40;99.90;;;;;;5051888;28;20021;-80
2022/09/02 02:38:25;;;;;;;2.72;1.67;;;13.30;99.90;;;;;;5045880;28;20031;-79
2022/09/02 02:40:56;;;;;;;2.40;2.20;;;13.30;99.90;;;;;;5048030;28;20028;-80
2022/09/02 02:43:22;;;;;;;2.17;1.77;;;13.30;99.90;;;;;;5050668;28;20032;-79
2022/09/02 02:45:48;;;;;;;2.45;1.58;;;13.30;99.90;;;;;;5046983;28;20079;-80
2022/09/02 02:48:13;;;;;;;3.33;1.50;;;13.20;99.90;;;;;;5041726;28;20556;-82
2022/09/02 02:50:39;;;;;;;2.75;1.80;;;13.20;99.90;;;;;;5050420;28;20025;-83
2022/09/02 02:53:04;;;;;;;3.75;2.03;;;13.20;99.90;;;;;;5048025;28;20029;-79
2022/09/02 02:55:30;;;;;;;2.80;1.67;;;13.20;99.90;;;;;;5044853;28;20104;-79
2022/09/02 02:57:55;;;;;;;2.97;1.80;;;13.20;99.90;;;;;;5046898;28;20120;-79
2022/09/02 03:00:24;;;;;;;3.35;1.70;;;13.20;99.90;;;;;;5051176;28;20704;-82
2022/09/02 03:02:54;;;;;;;4.22;1.60;;;13.20;99.90;;;;;;5048832;28;20373;-79
2022/09/02 03:05:20;;;;;;;3.33;2.13;;;13.10;99.90;;;;;;5053805;28;20064;-80
2022/09/02 03:07:45;;;;;;;3.00;1.48;;;13.10;99.90;;;;;;5049507;28;20083;-79
2022/09/02 03:10:12;;;;;;;2.00;1.77;;;13.10;99.90;;;;;;5048992;28;20021;-78
2022/09/02 03:12:38;;;;;;;3.25;1.88;;;13.10;99.90;;;;;;5045188;28;20131;-79
2022/09/02 03:15:05;;;;;;;2.10;1.65;;;13.10;99.90;;;;;;5048198;28;20029;-80
2022/09/02 03:17:31;;;;;;;7.10;1.70;;;13.10;99.90;;;;;;5045541;28;20037;-79
2022/09/02 03:19:57;;;;;;;2.60;2.00;;;13.10;99.90;;;;;;5047205;28;20038;-78
2022/09/02 03:22:25;;;;;;;7.65;2.30;;;13.10;99.90;;;;;;5050019;28;20025;-79
2022/09/02 03:24:50;;;;;;;3.15;2.30;;;13.10;99.90;;;;;;5052675;28;20031;-81
2022/09/02 03:27:15;;;;;;;2.55;2.22;;;13.10;99.90;;;;;;5044197;28;20131;-79
2022/09/02 03:29:41;;;;;;;2.90;2.25;;;13.00;99.90;;;;;;5045257;28;20047;-79
2022/09/02 03:32:07;;;;;;;2.92;2.00;;;13.00;99.90;;;;;;5050371;28;20063;-79
2022/09/02 03:34:32;;;;;;;3.85;2.05;;;13.00;99.90;;;;;;5041721;28;20024;-79
2022/09/02 03:36:58;;;;;;;3.47;2.13;;;13.00;99.90;;;;;;5043540;28;20029;-79
2022/09/02 03:39:23;;;;;;;2.72;1.80;;;13.00;99.90;;;;;;5047620;28;20033;-80
2022/09/02 03:41:49;;;;;;;1.95;1.75;;;13.00;99.90;;;;;;5047200;28;20110;-80
2022/09/02 03:44:15;;;;;;;3.55;2.22;;;13.00;99.90;;;;;;5047301;28;20474;-79
2022/09/02 03:46:41;;;;;;;4.20;2.38;;;13.00;99.90;;;;;;5056575;28;20037;-79
2022/09/02 03:49:07;;;;;;;2.80;2.30;;;13.00;99.90;;;;;;5051179;28;20029;-80
2022/09/02 03:51:33;;;;;;;3.65;2.03;;;13.00;99.90;;;;;;5045123;28;20024;-81
2022/09/02 03:54:01;;;;;;;2.38;2.00;;;13.00;99.90;;;;;;5034940;28;20255;-80
2022/09/02 03:56:26;;;;;;;2.67;1.92;;;13.00;99.90;;;;;;5046824;28;20049;-80
2022/09/02 03:58:52;;;;;;;3.45;2.00;;;13.00;99.90;;;;;;5035985;28;20040;-80
2022/09/02 04:01:22;;;;;;;2.72;2.28;;;13.00;99.90;;;;;;5038877;28;20025;-80
2022/09/02 04:03:47;;;;;;;2.80;1.92;;;13.00;99.90;;;;;;5058897;28;20028;-81
2022/09/02 04:06:15;;;;;;;3.47;1.85;;;13.00;99.90;;;;;;5038606;28;20095;-80
2022/09/02 04:08:42;;;;;;;2.67;2.00;;;13.00;99.90;;;;;;5043291;28;20056;-80
2022/09/02 04:11:11;;;;;;;2.80;2.20;;;13.00;99.90;;;;;;5039954;28;20021;-79
2022/09/02 04:13:37;;;;;;;4.75;2.28;;;13.00;99.90;;;;;;5039248;28;20017;-81
2022/09/02 04:16:08;;;;;;;3.97;3.00;;;13.00;99.90;;;;;;5038157;28;20083;-80
2022/09/02 04:18:34;;;;;;;2.78;2.13;;;13.00;99.90;;;;;;5042548;28;20029;-81
2022/09/02 04:21:00;;;;;;;3.42;2.42;;;13.00;99.90;;;;;;5042913;28;20033;-80
2022/09/02 04:23:27;;;;;;;3.97;2.45;;;13.00;99.90;;;;;;5055627;28;20055;-80
2022/09/02 04:25:53;;;;;;;3.70;2.38;;;13.00;99.90;;;;;;5050686;28;20029;-80
2022/09/02 04:28:18;;;;;;;3.28;2.08;;;13.00;99.90;;;;;;5044988;28;20528;-80
2022/09/02 04:30:44;;;;;;;5.90;2.65;;;13.00;99.90;;;;;;5050158;28;20072;-81
2022/09/02 04:33:10;;;;;;;3.92;2.88;;;13.00;99.90;;;;;;5050265;28;20157;-80
2022/09/02 04:35:41;;;;;;;3.00;2.60;;;13.00;99.90;;;;;;5052362;28;20033;-81
2022/09/02 04:38:06;;;;;;;3.78;2.50;;;13.00;99.90;;;;;;5052880;28;20037;-80
2022/09/02 04:40:32;;;;;;;6.30;2.72;;;13.00;99.90;;;;;;5048204;28;20421;-80
2022/09/02 04:42:58;;;;;;;4.10;2.97;;;13.00;99.90;;;;;;5051847;28;20465;-79
2022/09/02 04:45:23;;;;;;;3.08;2.38;;;13.00;99.90;;;;;;5046916;28;20033;-79
2022/09/02 04:47:49;;;;;;;3.95;2.50;;;13.00;99.90;;;;;;5043733;28;20515;-81
2022/09/02 04:50:14;;;;;;;3.97;2.75;;;13.00;99.90;;;;;;5046349;28;20041;-83
2022/09/02 04:52:40;;;;;;;3.33;2.58;;;13.00;99.90;;;;;;5046215;28;20025;-80
2022/09/02 04:55:05;;;;;;;6.63;2.97;;;13.10;99.90;;;;;;5049054;28;20036;-79
2022/09/02 04:57:32;;;;;;;3.22;2.25;;;13.10;99.90;;;;;;5046284;28;20021;-80
2022/09/02 04:59:57;;;;;;;3.80;2.85;;;13.10;99.90;;;;;;5049288;28;20033;-79
2022/09/02 05:02:23;;;;;;;7.82;2.38;;;13.10;99.90;;;;;;5050263;28;20025;-79
2022/09/02 05:04:49;;;;;;;3.60;2.88;;;13.10;99.90;;;;;;5051095;28;20029;-84
2022/09/02 05:07:14;;;;;;;3.67;2.58;;;13.10;99.90;;;;;;5048723;28;20100;-84
2022/09/02 05:09:40;;;;;;;5.47;3.33;;;13.10;99.90;;;;;;5053267;28;20025;-84
2022/09/02 05:12:06;;;;;;;3.30;2.75;;;13.20;99.90;;;;;;5059338;28;20029;-82
2022/09/02 05:14:32;;;;;;;3.35;2.40;;;13.20;99.90;;;;;;5058481;28;20088;-81
2022/09/02 05:16:59;;;;;;;4.68;3.08;;;13.20;99.90;;;;;;5063753;28;20461;-78
2022/09/02 05:19:25;;;;;;;2.92;2.60;;;13.20;99.90;;;;;;5061901;28;20017;-79
2022/09/02 05:21:56;;;;;;;6.43;3.33;;;13.30;99.90;;;;;;5056407;28;20027;-80
2022/09/02 05:24:22;;;;;;;2.80;2.47;;;13.30;99.90;;;;;;5064256;28;20055;-81
2022/09/02 05:26:49;;;;;;;6.88;3.00;;;13.30;99.90;;;;;;5071831;28;20047;-78
2022/09/02 05:29:17;;;;;;;4.30;3.45;;;13.40;99.90;;;;;;5060531;28;20121;-80
2022/09/02 05:31:43;;;;;;;4.93;2.88;;;13.40;99.90;;;;;;5049260;28;20300;-80
2022/09/02 05:34:09;;;;;;;3.40;2.85;;;13.40;99.90;;;;;;5050569;28;20515;-80
2022/09/02 05:36:34;;;;;;;5.05;3.00;;;13.50;99.90;;;;;;5049279;28;20366;-80
2022/09/02 05:39:01;;;;;;;3.45;2.58;;;13.50;99.90;;;;;;5049528;28;20037;-81
2022/09/02 05:41:27;;;;;;;4.18;3.00;;;13.50;99.90;;;;;;5057582;28;20016;-82
2022/09/02 05:43:57;;;;;;;4.18;2.88;;;13.60;99.90;;;;;;5069906;28;20020;-83
2022/09/02 05:46:24;;;;;;;4.18;2.97;;;13.60;99.90;;;;;;5053611;28;20082;-80
2022/09/02 05:49:06;;;;;;;3.95;2.60;;;13.70;99.90;;;;;;5045768;28;20036;-82
2022/09/02 05:51:40;;;;;;;3.65;2.75;;;13.60;99.90;;;;;;5042787;28;20075;-79
2022/09/02 05:54:07;;;;;;;2.92;2.63;;;13.70;99.90;;;;;;5049858;28;20049;-80
2022/09/02 05:56:33;;;;;;;3.80;2.83;;;13.80;99.90;;;;;;5031962;28;20026;-81
2022/09/02 05:58:59;;;;;;;5.60;3.00;;;13.80;99.90;;;;;;5050998;28;20366;-83
2022/09/02 06:01:25;;;;;;;3.38;2.65;;;13.80;99.90;;;;;;5043359;28;20108;-82
2022/09/02 06:03:51;;;;;;;5.97;3.05;;;13.90;99.90;;;;;;5043294;28;20037;-81
2022/09/02 06:06:17;;;;;;;5.53;3.08;;;13.90;99.90;;;;;;5049530;28;20038;-80
2022/09/02 06:08:43;;;;;;;4.90;2.80;;;14.00;99.90;;;;;;5050145;28;20029;-80
2022/09/02 06:11:10;;;;;;;3.42;2.80;;;14.00;99.90;;;;;;5064740;28;20036;-79
2022/09/02 06:13:40;;;;;;;5.13;2.42;;;14.10;99.90;;;;;;5061553;28;20042;-79
2022/09/02 06:16:09;;;;;;;6.32;2.10;;;14.20;99.90;;;;;;5056496;28;20021;-81
2022/09/02 06:18:35;;;;;;;4.93;2.38;;;14.30;99.90;;;;;;5059031;28;20016;-82
2022/09/02 06:21:03;;;;;;;3.15;2.47;;;14.40;99.90;;;;;;5060328;28;20037;-80
2022/09/02 06:23:28;;;;;;;2.65;2.13;;;14.40;99.90;;;;;;5057788;28;20043;-80
2022/09/02 06:25:54;;;;;;;3.30;1.80;;;14.50;99.90;;;;;;5052645;28;20025;-84
2022/09/02 06:28:19;;;;;;;3.78;2.03;;;14.60;99.90;;;;;;5056917;28;20473;-81
2022/09/02 06:30:47;;;;;;;2.83;1.80;;;14.70;99.90;;;;;;5052829;28;20107;-83
2022/09/02 06:33:12;;;;;;;2.50;1.38;;;14.70;99.90;;;;;;5049719;28;20025;-80
2022/09/02 06:35:41;;;;;;;2.17;1.75;;;14.80;99.90;;;;;;5048762;28;20453;-84
2022/09/02 06:38:07;;;;;;;3.42;1.88;;;14.90;99.90;;;;;;5047755;28;20032;-80
2022/09/02 06:40:33;;;;;;;2.30;1.60;;;15.00;99.90;;;;;;5047815;28;20074;-81
2022/09/02 06:42:58;;;;;;;2.40;1.63;;;15.10;99.90;;;;;;5048869;28;20442;-80
2022/09/02 06:45:24;;;;;;;3.67;1.65;;;15.20;99.90;;;;;;5049096;28;20095;-81
2022/09/02 06:47:50;;;;;;;4.20;1.30;;;15.20;99.90;;;;;;5048087;28;20037;-81
2022/09/02 06:50:16;;;;;;;2.38;1.30;;;15.40;99.90;;;;;;5047530;28;20033;-82
2022/09/02 06:52:42;;;;;;;1.95;1.40;;;15.50;99.90;;;;;;5047212;28;20101;-81
2022/09/02 06:55:09;;;;;;;3.08;1.15;;;15.60;99.90;;;;;;5047260;28;20021;-84
2022/09/02 06:57:34;;;;;;;2.10;1.45;;;15.70;99.70;;;;;;5047376;28;20059;-84
2022/09/02 07:00:02;;;;;;;2.22;1.23;;;15.80;99.50;;;;;;5048657;28;20029;-84
2022/09/02 07:02:27;;;;;;;4.20;1.30;;;15.80;99.30;;;;;;5048543;28;20013;-80
2022/09/02 07:05:08;;;;;;;6.00;1.20;;;16.00;99.30;;;;;;5048827;28;20025;-84
2022/09/02 07:07:39;;;;;;;2.00;0.90;;;16.00;98.80;;;;;;5047832;28;20029;-80
2022/09/02 07:10:06;;;;;;;5.75;0.98;;;16.10;98.40;;;;;;5047012;28;20029;-83
2022/09/02 07:12:34;;;;;;;2.70;0.95;;;16.20;98.30;;;;;;5047189;28;20021;-80
2022/09/02 07:15:00;;;;;;;2.25;1.10;;;16.40;98.60;;;;;;5048541;28;20035;-81
2022/09/02 07:17:26;;;;;;;3.47;1.42;;;16.50;98.50;;;;;;5048266;28;20421;-83
2022/09/02 07:19:54;;;;;;;2.03;1.02;;;16.60;98.60;;;;;;5047107;28;20021;-82
2022/09/02 07:22:20;;;;;;;2.38;0.80;;;16.60;98.00;;;;;;5048862;28;20033;-81
2022/09/02 07:24:45;;;;;;;1.38;0.80;;;16.70;97.70;;;;;;5048723;28;20032;-81
2022/09/02 07:27:11;;;;;;;3.55;1.00;;;16.90;97.30;;;;;;5047050;28;20061;-81
2022/09/02 07:29:37;;;;;;;2.40;0.77;;;17.00;96.70;;;;;;5046847;28;20116;-81
2022/09/02 07:32:03;;;;;;;1.67;0.80;;;17.10;96.80;;;;;;5046936;28;20408;-81
2022/09/02 07:34:29;;;;;;;5.00;0.90;;;17.20;96.50;;;;;;5049206;28;20044;-83
2022/09/02 07:36:54;;;;;;;1.58;0.90;;;17.40;96.40;;;;;;5047763;28;20472;-82
2022/09/02 07:39:20;;;;;;;1.17;0.50;;;17.60;95.90;;;;;;5050980;28;20485;-82
2022/09/02 07:41:48;;;;;;;0.82;0.43;;;17.70;95.60;;;;;;5047481;28;20017;-79
2022/09/02 07:44:14;;;;;;;1.98;0.85;;;17.80;94.70;;;;;;5059996;28;20025;-79
2022/09/02 07:46:39;;;;;;;1.50;0.77;;;17.80;94.60;;;;;;5059127;28;20040;-84
2022/09/02 07:49:08;;;;;;;1.77;0.93;;;18.00;94.50;;;;;;5054981;28;20128;-82
2022/09/02 07:51:36;;;;;;;1.67;0.80;;;18.20;94.70;;;;;;5053341;28;20025;-82
2022/09/02 07:54:02;;;;;;;1.20;0.68;;;18.30;94.10;;;;;;5054034;28;20090;-82
2022/09/02 07:56:28;;;;;;;0.80;0.50;;;18.40;93.90;;;;;;5052927;28;20028;-82
2022/09/02 07:58:53;;;;;;;5.38;0.60;;;18.50;93.30;;;;;;5052599;28;20025;-82
2022/09/02 08:01:20;;;;;;;2.05;0.63;;;18.70;92.90;;;;;;5051117;28;20061;-84
2022/09/02 08:03:46;;;;;;;1.83;0.60;;;18.80;93.20;;;;;;5051249;28;20358;-82
2022/09/02 08:06:12;;;;;;;1.85;0.93;;;19.00;93.50;;;;;;5051672;28;20039;-84
2022/09/02 08:08:39;;;;;;;0.63;0.40;;;19.10;92.60;;;;;;5051258;28;20485;-81
2022/09/02 08:11:05;;;;;;;4.25;0.70;;;19.30;92.10;;;;;;5050026;28;20374;-82
2022/09/02 08:13:31;;;;;;;1.15;0.60;;;19.40;92.10;;;;;;5051973;28;20029;-83
2022/09/02 08:15:56;;;;;;;1.58;0.45;;;19.50;91.90;;;;;;5050914;28;20366;-82
2022/09/02 08:18:22;;;;;;;2.00;1.00;;;19.60;91.40;;;;;;5050414;28;20017;-82
2022/09/02 08:20:47;;;;;;;2.65;0.50;;;19.80;91.10;;;;;;5051059;28;20597;-82
2022/09/02 08:23:13;;;;;;;1.73;0.68;;;19.90;91.00;;;;;;5050227;28;20033;-82
2022/09/02 08:25:39;;;;;;;1.40;0.55;;;20.00;90.20;;;;;;5049706;28;20021;-82
2022/09/02 08:28:05;;;;;;;1.23;0.50;;;20.20;89.80;;;;;;5051633;28;20568;-82
2022/09/02 08:30:30;;;;;;;1.02;0.50;;;20.40;90.20;;;;;;5051422;28;20051;-82
2022/09/02 08:32:56;;;;;;;1.13;0.40;;;20.50;90.10;;;;;;5051696;28;20037;-82
2022/09/02 08:35:22;;;;;;;1.85;0.40;;;20.60;90.00;;;;;;5050939;28;20035;-84
2022/09/02 08:37:47;;;;;;;1.33;0.50;;;20.80;89.30;;;;;;5050820;28;20032;-84
2022/09/02 08:40:17;;;;;;;2.38;0.30;;;20.90;88.50;;;;;;5050795;28;20028;-83
2022/09/02 08:42:47;;;;;;;3.75;0.50;;;21.00;89.20;;;;;;5039929;28;20032;-82
2022/09/02 08:45:31;;;;;;;2.25;0.47;;;21.20;89.30;;;;;;5051968;28;20082;-81
2022/09/02 08:48:13;;;;;;;2.00;0.40;;;21.30;88.40;;;;;;5052821;28;20021;-81
2022/09/02 08:50:43;;;;;;;0.53;0.30;;;21.40;85.70;;;;;;5052921;28;20024;-82
2022/09/02 08:53:18;;;;;;;2.92;0.85;;;21.40;86.50;;;;;;5061559;28;20212;-82
2022/09/02 08:55:53;;;;;;;0.93;0.50;;;21.50;86.20;;;;;;5074900;28;20116;-83
2022/09/02 08:58:22;;;;;;;2.63;0.60;;;21.60;86.40;;;;;;5075756;28;20029;-83
2022/09/02 09:01:03;;;;;;;4.22;0.65;;;21.70;88.60;;;;;;5051312;28;20035;-82
2022/09/02 09:03:37;;;;;;;1.13;0.45;;;21.80;87.50;;;;;;5052267;28;20100;-85
2022/09/02 09:06:05;;;;;;;3.28;0.50;;;21.90;85.30;;;;;;5049092;28;20714;-85
2022/09/02 09:08:37;;;;;;;3.22;0.40;;;22.00;84.70;;;;;;5038393;28;20489;-82
2022/09/02 09:11:28;;;;;;;3.70;0.40;;;22.10;84.60;;;;;;5046198;28;20021;-84
2022/09/02 09:14:16;;;;;;;0.85;0.40;;;22.20;83.90;;;;;;5045810;28;20052;-85
2022/09/02 09:17:08;;;;;;;0.85;0.40;;;22.30;83.20;;;;;;5046109;28;20201;-80
2022/09/02 09:19:49;;;;;;;1.38;0.57;;;22.40;83.10;;;;;;5036308;28;20549;-81
2022/09/02 09:22:18;;;;;;;0.80;0.40;;;22.50;82.00;;;;;;5049587;28;20033;-82
2022/09/02 09:24:45;;;;;;;0.68;0.47;;;22.60;83.30;;;;;;5049122;28;20035;-83
2022/09/02 09:27:19;;;;;;;3.97;0.40;;;22.70;79.80;;;;;;5048723;28;20059;-83
2022/09/02 09:29:46;;;;;;;1.05;0.40;;;22.80;80.10;;;;;;5049322;28;20720;-82
2022/09/02 09:32:28;;;;;;;0.98;0.38;;;22.80;80.40;;;;;;5046889;28;20031;-83
2022/09/02 09:35:06;;;;;;;4.93;0.30;;;22.80;79.00;;;;;;5044610;28;20065;-82
2022/09/02 09:37:33;;;;;;;1.00;0.35;;;22.80;78.40;;;;;;5048812;28;20013;-82
2022/09/02 09:39:59;;;;;;;0.60;0.30;;;22.90;77.90;;;;;;5048338;28;20040;-84
2022/09/02 09:42:36;;;;;;;1.40;0.40;;;23.00;76.60;;;;;;5049239;28;20543;-81
2022/09/02 09:45:31;;;;;;;0.88;0.47;;;23.00;77.90;;;;;;5047738;28;20037;-82
2022/09/02 09:48:16;;;;;;;1.40;0.40;;;23.10;77.40;;;;;;5047324;28;20060;-83
2022/09/02 09:50:47;;;;;;;0.75;0.30;;;23.30;75.20;;;;;;5040310;28;20369;-80
2022/09/02 09:53:20;;;;;;;1.08;0.30;;;23.30;75.70;;;;;;5045747;28;20025;-81
2022/09/02 09:56:06;;;;;;;4.22;1.10;;;23.40;75.80;;;;;;5029757;28;20083;-82
2022/09/02 09:58:33;;;;;;;0.73;0.30;;;23.40;73.80;;;;;;5029908;28;20021;-80
2022/09/02 10:01:15;;;;;;;0.68;0.28;;;23.30;73.00;;;;;;5028422;28;20488;-81
2022/09/02 10:04:02;;;;;;;1.75;0.73;;;23.40;76.00;;;;;;5046863;28;20017;-80
2022/09/02 10:06:31;;;;;;;2.85;0.32;;;23.50;74.10;;;;;;5045940;28;20025;-81
2022/09/02 10:08:59;;;;;;;1.88;0.32;;;23.50;72.00;;;;;;5048311;28;20024;-81
2022/09/02 10:11:27;;;;;;;0.82;0.55;;;23.50;73.40;;;;;;5048936;28;20040;-82
2022/09/02 10:14:07;;;;;;;0.60;0.20;;;23.40;72.80;;;;;;5049509;28;20028;-82
2022/09/02 10:16:57;;;;;;;2.35;0.22;;;23.50;73.90;;;;;;5047745;28;20528;-81
2022/09/02 10:19:33;;;;;;;1.77;0.30;;;23.60;73.70;;;;;;5046907;28;20028;-82
2022/09/02 10:22:16;;;;;;;2.30;0.38;;;23.70;72.10;;;;;;5046057;28;20026;-79
2022/09/02 10:25:24;;;;;;;0.60;0.40;;;23.80;70.40;;;;;;5057767;28;20083;-81
2022/09/02 10:27:57;;;;;;;2.55;0.30;;;23.80;72.70;;;;;;5037052;28;20026;-79
2022/09/02 10:30:25;;;;;;;0.98;0.30;;;23.80;70.60;;;;;;5057565;28;20448;-83
2022/09/02 10:33:06;;;;;;;8.35;0.40;;;23.90;72.10;;;;;;5053117;28;20359;-80
2022/09/02 10:35:42;;;;;;;2.85;0.50;;;23.90;70.70;;;;;;5044475;28;20024;-78
2022/09/02 10:38:28;;;;;;;1.73;0.30;;;23.90;72.50;;;;;;5044261;28;20048;-80
2022/09/02 10:41:17;;;;;;;0.65;0.30;;;24.10;71.30;;;;;;5045188;28;20017;-79
2022/09/02 10:44:20;;;;;;;1.33;0.45;;;24.10;73.10;;;;;;5036709;28;20045;-79
2022/09/02 10:46:55;;;;;;;1.08;0.50;;;24.30;68.70;;;;;;5045257;28;20039;-81
2022/09/02 10:49:57;;;;;;;2.15;0.20;;;24.50;69.30;;;;;;5047771;28;20025;-81
2022/09/02 10:52:42;;;;;;;0.85;0.20;;;24.60;68.60;;;;;;5050464;28;20411;-82
2022/09/02 10:55:17;;;;;;;1.17;0.22;;;24.70;64.30;;;;;;5044216;28;20028;-82
2022/09/02 10:58:06;;;;;;;0.50;0.38;;;24.80;66.60;;;;;;5035119;28;20032;-82
2022/09/02 11:00:35;;;;;;;0.90;0.30;;;24.90;67.20;;;;;;5046926;28;20033;-81
2022/09/02 11:03:20;;;;;;;1.17;0.30;;;24.90;67.60;;;;;;5036321;28;20056;-85
2022/09/02 11:05:53;;;;;;;0.85;0.20;;;24.90;66.30;;;;;;5045608;28;20021;-82
2022/09/02 11:08:30;;;;;;;0.43;0.20;;;24.90;66.90;;;;;;5048529;28;21508;-81
2022/09/02 11:11:03;;;;;;;1.20;0.30;;;24.90;65.10;;;;;;5044275;28;20033;-84
2022/09/02 11:14:00;;;;;;;2.50;0.38;;;24.70;66.00;;;;;;5055389;28;20495;-82
2022/09/02 11:16:34;;;;;;;2.20;0.20;;;24.40;65.60;;;;;;5044427;28;20033;-81
2022/09/02 11:19:10;;;;;;;6.60;0.40;;;24.20;66.20;;;;;;5048346;28;20067;-83
2022/09/02 11:21:39;;;;;;;4.40;0.20;;;24.10;67.90;;;;;;5052483;28;20198;-82
2022/09/02 11:24:20;;;;;;;2.60;0.22;;;23.90;68.00;;;;;;5052168;28;20036;-81
2022/09/02 11:27:08;;;;;;;0.23;0.20;;;23.90;69.50;;;;;;5043802;28;20033;-84
2022/09/02 11:29:52;;;;;;;0.20;0.20;;;24.00;68.90;;;;;;5051515;28;20121;-82
2022/09/02 11:32:54;;;;;;;0.32;0.20;;;24.30;66.20;;;;;;5049963;28;20032;-83
2022/09/02 11:35:26;;;;;;;2.20;0.40;;;24.50;64.70;;;;;;5047159;28;20030;-84
2022/09/02 11:37:55;;;;;;;;;;;24.60;65.80;;;;;;5047971;28;20045;-83
2022/09/02 11:40:43;;;;;;;1.38;0.30;;;24.60;63.10;;;;;;5053302;28;19982;-85
2022/09/02 11:43:35;;;;;;;0.50;0.20;;;24.60;65.10;;;;;;5046527;28;20033;-84
2022/09/02 11:46:38;;;;;;;0.80;0.20;;;24.60;64.20;;;;;;5055525;28;20033;-82
2022/09/02 11:49:15;;;;;;;1.10;0.38;;;24.50;65.00;;;;;;5045299;28;20600;-83
2022/09/02 11:51:57;;;;;;;1.77;0.20;;;24.40;64.30;;;;;;5051329;28;20104;-82
2022/09/02 11:54:26;;;;;;;1.98;0.30;;;24.30;63.90;;;;;;5051336;28;20105;-81
2022/09/02 11:56:58;;;;;;;0.20;0.20;;;24.20;61.70;;;;;;5054904;28;20064;-86
2022/09/02 11:59:52;;;;;;;0.93;0.40;;;24.10;62.80;;;;;;5055907;28;20017;-82
2022/09/02 12:02:38;;;;;;;0.22;0.20;;;24.20;61.80;;;;;;5049969;28;20097;-81
2022/09/02 12:05:33;;;;;;;1.50;0.20;;;24.40;64.50;;;;;;5061059;28;20534;-81
2022/09/02 12:08:11;;;;;;;0.30;0.20;;;24.70;62.20;;;;;;5040268;28;20037;-83
2022/09/02 12:10:42;;;;;;;0.65;0.20;;;24.90;62.30;;;;;;5053008;28;20478;-83
2022/09/02 12:13:11;;;;;;;0.40;0.20;;;25.20;62.30;;;;;;5066298;28;20028;-81
2022/09/02 12:15:39;;;;;;;1.25;0.20;;;25.40;61.80;;;;;;5066147;28;20033;-82
2022/09/02 12:18:10;;;;;;;0.75;0.30;;;25.50;60.00;;;;;;5051150;28;20024;-81
2022/09/02 12:20:40;;;;;;;1.00;0.30;;;25.60;59.90;;;;;;5052612;28;20035;-83
2022/09/02 12:23:30;;;;;;;1.40;0.30;;;25.70;59.70;;;;;;5055559;28;20027;-81
2022/09/02 12:25:59;;;;;;;0.43;0.25;;;25.80;60.10;;;;;;5052967;28;20069;-81
2022/09/02 12:28:29;;;;;;;1.70;0.20;;;26.00;58.70;;;;;;5070428;28;20037;-81
2022/09/02 12:31:01;;;;;;;1.98;0.20;;;26.10;59.20;;;;;;5055663;28;20032;-82
2022/09/02 12:33:39;;;;;;;0.40;0.25;;;26.30;59.90;;;;;;5054560;28;20028;-82
2022/09/02 12:36:09;;;;;;;3.35;0.40;;;26.40;58.90;;;;;;5060018;28;20059;-84
2022/09/02 12:38:39;;;;;;;0.60;0.25;;;26.70;57.10;;;;;;5050765;28;20028;-83
2022/09/02 12:41:04;;;;;;;0.20;0.20;;;26.70;57.90;;;;;;5052468;28;20563;-83
2022/09/02 12:43:34;;;;;;;3.03;0.30;;;26.80;58.10;;;;;;5060573;28;20048;-86
2022/09/02 12:46:27;;;;;;;0.75;0.20;;;26.80;58.30;;;;;;5071669;28;20024;-82
2022/09/02 12:49:28;;;;;;;2.00;0.30;;;27.00;58.20;;;;;;5050385;28;20033;-82
2022/09/02 12:51:53;;;;;;;3.30;0.30;;;27.00;58.20;;;;;;5049493;28;20013;-82
2022/09/02 12:54:42;;;;;;;1.65;0.20;;;27.00;59.90;;;;;;5052669;28;20023;-82
2022/09/02 12:57:09;;;;;;;5.00;0.30;;;26.80;58.50;;;;;;5052046;28;20100;-82
2022/09/02 12:59:38;;;;;;;0.70;0.20;;;26.90;59.00;;;;;;5049677;28;20025;-81
2022/09/02 13:02:36;;;;;;;0.63;0.30;;;26.90;58.40;;;;;;5049870;28;20048;-81
2022/09/02 13:05:25;;;;;;;1.17;0.30;;;26.80;58.70;;;;;;5061218;28;20044;-82